Time;durP1;ratioP1;P1;durP2;ratioP2;P2;SDS_P1;SDS_P2;PMS_P1;PMS_P2;Temp;Humidity;BMP_temperature;BMP_pressure;BME280_temperature;BME280_humidity;BME280_pressure;Samples;Min_cycle;Max_cycle;Signal;HPM_P1;HPM_P2
2022/03/27 00:02:18;;;;;;;12.07;9.70;;;16.70;71.30;;;;;;4993397;28;20023;-61
2022/03/27 00:04:43;;;;;;;16.35;9.85;;;16.60;71.30;;;;;;4993793;28;20081;-61
2022/03/27 00:07:09;;;;;;;13.55;10.20;;;16.60;71.30;;;;;;4994122;28;20026;-62
2022/03/27 00:09:35;;;;;;;10.90;9.70;;;16.60;71.30;;;;;;4993386;28;20109;-61
2022/03/27 00:12:00;;;;;;;10.95;9.38;;;16.60;71.40;;;;;;4985032;28;20027;-61
2022/03/27 00:14:26;;;;;;;12.38;10.57;;;16.50;71.30;;;;;;4974762;28;20057;-62
2022/03/27 00:16:51;;;;;;;16.13;9.48;;;16.50;71.50;;;;;;4974698;28;20461;-61
2022/03/27 00:19:17;;;;;;;11.85;9.75;;;16.50;71.50;;;;;;4974086;28;20053;-61
2022/03/27 00:21:44;;;;;;;12.30;9.43;;;16.50;71.60;;;;;;4974557;28;20138;-62
2022/03/27 00:24:10;;;;;;;14.15;10.00;;;16.50;71.60;;;;;;4957125;28;20082;-61
2022/03/27 00:26:35;;;;;;;12.75;10.10;;;16.50;72.40;;;;;;4974420;28;20038;-61
2022/03/27 00:29:01;;;;;;;11.90;9.73;;;16.50;71.80;;;;;;4974470;28;20033;-61
2022/03/27 00:31:27;;;;;;;13.95;10.68;;;16.50;71.80;;;;;;4974506;28;20031;-61
2022/03/27 00:33:53;;;;;;;12.38;10.25;;;16.40;71.90;;;;;;4973937;28;20472;-62
2022/03/27 00:36:19;;;;;;;12.73;9.93;;;16.40;72.00;;;;;;4974431;28;20113;-61
2022/03/27 00:38:45;;;;;;;11.20;9.18;;;16.40;72.00;;;;;;4975181;28;20027;-62
2022/03/27 00:41:14;;;;;;;14.13;9.60;;;16.40;72.10;;;;;;4993678;28;20029;-61
2022/03/27 00:43:40;;;;;;;11.68;9.13;;;16.40;72.20;;;;;;4993766;28;20392;-62
2022/03/27 00:46:09;;;;;;;12.15;9.50;;;16.40;72.10;;;;;;4993679;28;20036;-61
2022/03/27 00:48:35;;;;;;;10.40;8.77;;;16.40;72.20;;;;;;4993561;28;20160;-61
2022/03/27 00:51:02;;;;;;;13.20;9.80;;;16.40;72.10;;;;;;4993469;28;20472;-61
2022/03/27 00:53:27;;;;;;;11.38;10.18;;;16.40;72.30;;;;;;4994001;28;20014;-62
2022/03/27 00:55:53;;;;;;;12.07;10.40;;;16.30;72.30;;;;;;4992832;28;20511;-62
2022/03/27 00:58:19;;;;;;;13.00;9.80;;;16.30;72.40;;;;;;4993730;28;20061;-62
2022/03/27 01:00:50;;;;;;;13.32;10.63;;;16.30;72.50;;;;;;4993463;28;20077;-62
2022/03/27 01:03:21;;;;;;;13.57;10.15;;;16.30;72.70;;;;;;4993263;28;20045;-62
2022/03/27 01:05:48;;;;;;;10.70;9.35;;;16.20;73.00;;;;;;4993315;28;20042;-61
2022/03/27 01:08:14;;;;;;;12.02;9.68;;;16.20;73.20;;;;;;4993624;28;20022;-61
2022/03/27 01:10:41;;;;;;;10.95;9.80;;;16.10;73.40;;;;;;4993325;28;20022;-61
2022/03/27 01:13:11;;;;;;;12.25;9.82;;;16.10;73.50;;;;;;4994637;28;20034;-62
2022/03/27 01:15:45;;;;;;;11.85;9.90;;;16.10;73.60;;;;;;4997195;28;20053;-62
2022/03/27 01:18:12;;;;;;;12.70;10.32;;;16.10;73.60;;;;;;4997587;28;20095;-61
2022/03/27 01:20:40;;;;;;;13.65;9.95;;;16.10;73.70;;;;;;4997418;28;20037;-61
2022/03/27 01:23:14;;;;;;;14.30;10.35;;;16.10;73.90;;;;;;4997584;28;20023;-61
2022/03/27 01:25:43;;;;;;;12.32;9.98;;;16.10;74.00;;;;;;4995955;28;20047;-61
2022/03/27 01:28:10;;;;;;;13.10;9.20;;;16.10;74.10;;;;;;4997155;28;20026;-61
2022/03/27 01:30:37;;;;;;;11.25;9.55;;;16.10;74.20;;;;;;4996080;28;20084;-61
2022/03/27 01:33:05;;;;;;;11.20;9.93;;;16.00;74.30;;;;;;4997140;28;20023;-61
2022/03/27 01:35:31;;;;;;;12.00;9.85;;;16.00;74.50;;;;;;4990110;28;20023;-61
2022/03/27 01:37:56;;;;;;;12.35;10.07;;;16.00;74.70;;;;;;4977533;28;20049;-61
2022/03/27 01:40:22;;;;;;;10.65;9.32;;;16.00;74.70;;;;;;4977427;28;20049;-61
2022/03/27 01:42:49;;;;;;;16.15;10.15;;;15.90;75.00;;;;;;4977630;28;20352;-62
2022/03/27 01:45:15;;;;;;;13.30;9.25;;;15.90;75.20;;;;;;4977189;28;20039;-61
2022/03/27 01:47:41;;;;;;;11.25;9.82;;;15.90;75.20;;;;;;4976983;28;20029;-61
2022/03/27 01:50:07;;;;;;;12.35;9.65;;;15.90;75.40;;;;;;4978126;28;20106;-61
2022/03/27 01:52:34;;;;;;;12.43;9.30;;;15.80;75.60;;;;;;4996666;28;20452;-61
2022/03/27 01:55:00;;;;;;;12.63;9.50;;;15.80;75.80;;;;;;4996797;28;20100;-61
2022/03/27 01:57:26;;;;;;;12.55;9.88;;;15.80;75.80;;;;;;4979516;28;20379;-61
2022/03/27 01:59:51;;;;;;;12.07;9.50;;;15.80;75.70;;;;;;4987238;28;20039;-62
2022/03/27 02:02:23;;;;;;;11.55;9.27;;;15.90;75.70;;;;;;4977306;28;20022;-61
2022/03/27 02:04:50;;;;;;;12.68;9.20;;;15.80;75.60;;;;;;4977375;28;20027;-61
2022/03/27 02:07:16;;;;;;;14.10;9.95;;;15.80;75.70;;;;;;4977045;28;20028;-61
2022/03/27 02:09:41;;;;;;;12.13;10.02;;;15.70;76.00;;;;;;4977203;28;20031;-62
2022/03/27 02:12:07;;;;;;;12.70;10.07;;;15.80;76.10;;;;;;4976946;28;20118;-61
2022/03/27 02:14:33;;;;;;;12.45;9.95;;;15.70;76.20;;;;;;4976711;28;20026;-61
2022/03/27 02:16:58;;;;;;;12.95;9.50;;;15.70;76.30;;;;;;4976908;28;20031;-61
2022/03/27 02:19:24;;;;;;;12.85;9.63;;;15.70;76.40;;;;;;4976798;28;20038;-61
2022/03/27 02:21:49;;;;;;;12.55;9.63;;;15.70;76.40;;;;;;4976889;28;20031;-61
2022/03/27 02:24:15;;;;;;;12.38;9.18;;;15.70;76.50;;;;;;4976136;28;20027;-61
2022/03/27 02:26:45;;;;;;;11.07;9.98;;;15.70;76.60;;;;;;4976319;28;20031;-61
2022/03/27 02:29:14;;;;;;;11.38;10.00;;;15.70;76.80;;;;;;4976441;28;20484;-60
2022/03/27 02:31:40;;;;;;;11.27;9.98;;;15.60;76.80;;;;;;4976505;28;20484;-61
2022/03/27 02:34:05;;;;;;;12.73;10.38;;;15.60;76.70;;;;;;4976730;28;20023;-61
2022/03/27 02:36:31;;;;;;;10.88;9.07;;;15.60;76.90;;;;;;4976508;28;20123;-61
2022/03/27 02:38:57;;;;;;;12.85;9.77;;;15.60;76.80;;;;;;4976443;28;20101;-61
2022/03/27 02:41:22;;;;;;;11.23;10.02;;;15.60;76.90;;;;;;4993637;28;20103;-61
2022/03/27 02:43:48;;;;;;;13.50;10.75;;;15.60;77.00;;;;;;4981501;28;20440;-61
2022/03/27 02:46:13;;;;;;;11.50;10.02;;;15.60;77.20;;;;;;4976590;28;20034;-61
2022/03/27 02:48:39;;;;;;;11.68;10.02;;;15.50;77.30;;;;;;4995384;28;20500;-61
2022/03/27 02:51:05;;;;;;;12.23;10.43;;;15.60;77.50;;;;;;4995755;28;20030;-61
2022/03/27 02:53:30;;;;;;;13.43;10.40;;;15.50;77.60;;;;;;4995469;28;20069;-61
2022/03/27 02:55:56;;;;;;;15.93;10.65;;;15.50;77.50;;;;;;4995630;28;20034;-61
2022/03/27 02:58:21;;;;;;;11.75;9.95;;;15.50;77.60;;;;;;4977607;28;20052;-61
2022/03/27 03:00:47;;;;;;;13.73;10.73;;;15.50;77.60;;;;;;4976129;28;20057;-61
2022/03/27 03:03:13;;;;;;;14.00;10.43;;;15.50;77.80;;;;;;4976011;28;20105;-61
2022/03/27 03:05:40;;;;;;;10.60;9.48;;;15.40;77.90;;;;;;4975871;28;20035;-61
2022/03/27 03:08:11;;;;;;;11.32;10.07;;;15.40;78.20;;;;;;4976310;28;20030;-61
2022/03/27 03:10:38;;;;;;;12.10;10.13;;;15.40;78.10;;;;;;4975868;28;20150;-61
2022/03/27 03:13:05;;;;;;;14.80;10.70;;;15.40;77.90;;;;;;4975425;28;20535;-61
2022/03/27 03:15:31;;;;;;;12.32;10.43;;;15.40;78.00;;;;;;4975829;28;20081;-61
2022/03/27 03:17:56;;;;;;;12.15;10.75;;;15.40;78.10;;;;;;4975264;28;20070;-60
2022/03/27 03:20:22;;;;;;;14.35;10.77;;;15.40;78.80;;;;;;4975662;28;20023;-60
2022/03/27 03:22:48;;;;;;;11.90;10.10;;;15.30;78.30;;;;;;4975496;28;20027;-60
2022/03/27 03:25:14;;;;;;;12.95;10.75;;;15.30;78.40;;;;;;4975524;28;20043;-61
2022/03/27 03:27:39;;;;;;;13.68;11.23;;;15.20;78.60;;;;;;4974961;28;20026;-60
2022/03/27 03:30:06;;;;;;;14.60;11.15;;;15.20;78.70;;;;;;4958225;28;20058;-60
2022/03/27 03:32:34;;;;;;;13.02;11.55;;;15.20;79.00;;;;;;4975428;28;20046;-61
2022/03/27 03:34:59;;;;;;;17.20;12.82;;;15.10;79.20;;;;;;4975462;28;20034;-60
2022/03/27 03:37:25;;;;;;;14.70;13.02;;;15.10;79.40;;;;;;4982527;28;20387;-60
2022/03/27 03:39:51;;;;;;;17.35;14.05;;;15.10;79.40;;;;;;4994422;28;20042;-61
2022/03/27 03:42:16;;;;;;;15.60;13.82;;;15.00;79.70;;;;;;4994658;28;20077;-61
2022/03/27 03:44:43;;;;;;;16.27;14.57;;;15.00;79.70;;;;;;4994525;28;20475;-61
2022/03/27 03:47:09;;;;;;;16.13;14.40;;;15.00;80.00;;;;;;4994177;28;20022;-61
2022/03/27 03:49:35;;;;;;;20.00;17.85;;;14.90;80.20;;;;;;4994396;28;20073;-60
2022/03/27 03:52:00;;;;;;;24.08;20.35;;;14.90;80.60;;;;;;4994565;28;20042;-60
2022/03/27 03:54:26;;;;;;;35.45;26.50;;;14.80;80.90;;;;;;4994441;28;20033;-61
2022/03/27 03:56:52;;;;;;;39.13;29.13;;;14.80;81.00;;;;;;4993836;28;20030;-60
2022/03/27 03:59:18;;;;;;;47.50;33.67;;;14.80;81.30;;;;;;4991107;28;20033;-61
2022/03/27 04:01:44;;;;;;;47.80;33.95;;;14.80;81.50;;;;;;4990176;28;20019;-60
2022/03/27 04:04:09;;;;;;;44.67;32.35;;;14.80;81.80;;;;;;4994176;28;20034;-60
2022/03/27 04:06:35;;;;;;;39.45;28.50;;;14.80;81.90;;;;;;4993530;28;20456;-61
2022/03/27 04:09:01;;;;;;;39.05;29.90;;;14.80;82.00;;;;;;4993959;28;20018;-60
2022/03/27 04:11:26;;;;;;;38.78;29.10;;;14.80;82.00;;;;;;4993773;28;20041;-60
2022/03/27 04:13:52;;;;;;;36.90;28.67;;;14.80;82.00;;;;;;4994022;28;20033;-60
2022/03/27 04:16:18;;;;;;;35.88;27.20;;;14.80;82.30;;;;;;4984348;28;20425;-61
2022/03/27 04:18:43;;;;;;;34.25;27.02;;;14.70;82.60;;;;;;4974070;28;20042;-60
2022/03/27 04:21:09;;;;;;;33.25;25.67;;;14.80;82.70;;;;;;4974488;28;20058;-61
2022/03/27 04:23:36;;;;;;;29.05;23.67;;;14.80;82.70;;;;;;4974353;28;20023;-60
2022/03/27 04:26:02;;;;;;;30.85;23.65;;;14.70;83.40;;;;;;4980094;28;20042;-61
2022/03/27 04:28:28;;;;;;;31.48;23.73;;;14.70;83.40;;;;;;4993706;28;20076;-61
2022/03/27 04:30:54;;;;;;;30.55;23.10;;;14.80;83.70;;;;;;4993753;28;20030;-60
2022/03/27 04:33:19;;;;;;;31.90;25.63;;;14.70;83.60;;;;;;4993764;28;20041;-61
2022/03/27 04:35:45;;;;;;;29.52;24.88;;;14.70;83.80;;;;;;4992646;28;20029;-60
2022/03/27 04:38:11;;;;;;;26.58;23.65;;;14.80;84.10;;;;;;4993398;28;20018;-61
2022/03/27 04:40:36;;;;;;;28.42;21.88;;;14.70;84.30;;;;;;4993312;28;20371;-60
2022/03/27 04:43:03;;;;;;;29.35;22.80;;;14.70;84.40;;;;;;4994028;28;20109;-61
2022/03/27 04:45:28;;;;;;;32.22;24.92;;;14.70;84.90;;;;;;4993443;28;20045;-61
2022/03/27 04:47:54;;;;;;;35.78;27.23;;;14.70;84.90;;;;;;4992231;28;20030;-61
2022/03/27 04:50:20;;;;;;;35.75;27.50;;;14.70;85.00;;;;;;4993660;28;20030;-60
2022/03/27 04:52:45;;;;;;;34.38;28.25;;;14.70;85.00;;;;;;4993550;28;20031;-60
2022/03/27 04:55:11;;;;;;;32.30;25.75;;;14.70;85.20;;;;;;4976056;28;20078;-60
2022/03/27 04:57:38;;;;;;;32.65;26.75;;;14.70;85.10;;;;;;4993249;28;20090;-60
2022/03/27 05:00:10;;;;;;;36.25;26.05;;;14.70;85.20;;;;;;4993650;28;20511;-61
2022/03/27 05:02:37;;;;;;;33.75;25.08;;;14.70;85.50;;;;;;4993194;28;20377;-61
2022/03/27 05:05:04;;;;;;;33.45;26.65;;;14.70;85.50;;;;;;4993386;28;20071;-61
2022/03/27 05:07:30;;;;;;;40.50;30.73;;;14.70;85.60;;;;;;4993038;28;20097;-62
2022/03/27 05:09:55;;;;;;;47.17;35.53;;;14.70;85.80;;;;;;4993374;28;20125;-61
2022/03/27 05:12:21;;;;;;;54.80;39.08;;;14.70;85.80;;;;;;4993670;28;20486;-61
2022/03/27 05:14:47;;;;;;;55.58;38.70;;;14.70;86.00;;;;;;4993416;28;20085;-61
2022/03/27 05:17:12;;;;;;;51.63;38.05;;;14.60;86.20;;;;;;4992757;28;20500;-61
2022/03/27 05:19:38;;;;;;;56.83;39.47;;;14.60;86.40;;;;;;4993295;28;20035;-61
2022/03/27 05:22:04;;;;;;;65.45;45.50;;;14.60;86.50;;;;;;4973777;28;20035;-61
2022/03/27 05:24:30;;;;;;;78.22;52.45;;;14.60;86.80;;;;;;4992068;28;20026;-61
2022/03/27 05:26:55;;;;;;;79.60;54.25;;;14.60;86.70;;;;;;4989626;28;20053;-61
2022/03/27 05:29:21;;;;;;;89.75;58.53;;;14.60;86.90;;;;;;4993286;28;20033;-61
2022/03/27 05:31:47;;;;;;;90.43;60.72;;;14.50;87.00;;;;;;4993141;28;20088;-60
2022/03/27 05:34:13;;;;;;;86.88;58.33;;;14.60;87.10;;;;;;4992231;28;20033;-61
2022/03/27 05:36:38;;;;;;;94.85;63.72;;;14.50;86.90;;;;;;4993119;28;20026;-60
2022/03/27 05:39:04;;;;;;;93.57;62.75;;;14.50;87.10;;;;;;4991919;28;20035;-61
2022/03/27 05:41:30;;;;;;;110.45;68.38;;;14.50;87.10;;;;;;4993175;28;20025;-61
2022/03/27 05:43:56;;;;;;;94.60;61.78;;;14.60;87.30;;;;;;4992021;28;20399;-60
2022/03/27 05:46:21;;;;;;;97.30;64.32;;;14.60;87.20;;;;;;4984779;28;20484;-59
2022/03/27 05:48:47;;;;;;;94.53;62.25;;;14.60;87.30;;;;;;4989899;28;20038;-60
2022/03/27 05:51:13;;;;;;;107.43;66.78;;;14.60;87.30;;;;;;4991048;28;20130;-59
2022/03/27 05:53:38;;;;;;;105.78;65.13;;;14.60;87.50;;;;;;4992364;28;20022;-59
2022/03/27 05:56:05;;;;;;;116.22;72.38;;;14.60;87.50;;;;;;4992859;28;20030;-59
2022/03/27 05:58:31;;;;;;;100.40;61.40;;;14.60;87.60;;;;;;4992600;28;20029;-59
2022/03/27 06:00:56;;;;;;;99.45;62.20;;;14.60;87.60;;;;;;4993426;28;20034;-59
2022/03/27 06:03:22;;;;;;;98.80;64.50;;;14.50;87.70;;;;;;4995768;28;20050;-59
2022/03/27 06:05:49;;;;;;;97.07;63.00;;;14.50;88.20;;;;;;4995751;28;20038;-59
2022/03/27 06:08:15;;;;;;;98.45;62.80;;;14.50;88.20;;;;;;4995850;28;20084;-59
2022/03/27 06:10:41;;;;;;;99.97;65.22;;;14.50;88.40;;;;;;4996203;28;20484;-59
2022/03/27 06:13:10;;;;;;;103.22;65.78;;;14.50;88.60;;;;;;4987601;28;20031;-59
2022/03/27 06:15:36;;;;;;;96.03;63.28;;;14.50;88.30;;;;;;4979302;28;20023;-59
2022/03/27 06:18:02;;;;;;;92.00;62.25;;;14.50;88.30;;;;;;4980421;28;20467;-59
2022/03/27 06:20:30;;;;;;;95.85;61.42;;;14.60;88.40;;;;;;4995629;28;20084;-58
2022/03/27 06:22:57;;;;;;;97.18;61.15;;;14.50;88.60;;;;;;4982530;28;20476;-58
2022/03/27 06:25:25;;;;;;;98.45;62.28;;;14.50;89.00;;;;;;4976380;28;20042;-59
2022/03/27 06:27:52;;;;;;;93.45;59.97;;;14.50;88.90;;;;;;4976300;28;20105;-59
2022/03/27 06:30:22;;;;;;;94.60;60.85;;;14.50;89.00;;;;;;4982452;28;20085;-59
2022/03/27 06:32:48;;;;;;;85.70;56.75;;;14.50;89.00;;;;;;4995608;28;20484;-58
2022/03/27 06:35:15;;;;;;;91.22;60.20;;;14.50;89.10;;;;;;4995791;28;20388;-59
2022/03/27 06:37:42;;;;;;;85.65;56.50;;;14.50;89.20;;;;;;4995058;28;20026;-58
2022/03/27 06:40:10;;;;;;;98.25;60.90;;;14.50;89.10;;;;;;4985291;28;20088;-61
2022/03/27 06:42:36;;;;;;;102.95;64.10;;;14.60;89.00;;;;;;4995005;28;20023;-59
2022/03/27 06:45:03;;;;;;;97.57;62.47;;;14.60;89.10;;;;;;4982083;28;20038;-59
2022/03/27 06:47:29;;;;;;;94.25;62.55;;;14.60;89.20;;;;;;4957917;28;20050;-59
2022/03/27 06:49:57;;;;;;;90.07;60.40;;;14.60;89.30;;;;;;4976861;28;20073;-59
2022/03/27 06:52:24;;;;;;;86.45;59.30;;;14.60;89.40;;;;;;4987153;28;20046;-58
2022/03/27 06:54:51;;;;;;;86.97;57.63;;;14.60;89.60;;;;;;4995057;28;20097;-59
2022/03/27 06:57:17;;;;;;;84.88;56.88;;;14.50;89.50;;;;;;4994339;28;20045;-58
2022/03/27 07:05:12;;;;;;;91.60;58.35;;;14.60;89.60;;;;;;4994718;28;20057;-60
2022/03/27 07:07:38;;;;;;;98.28;59.78;;;14.60;89.50;;;;;;4993460;28;20391;-59
2022/03/27 07:10:04;;;;;;;102.63;62.75;;;14.60;89.60;;;;;;4993738;28;20468;-58
2022/03/27 07:12:30;;;;;;;100.22;61.00;;;14.60;89.60;;;;;;4993812;28;20038;-59
2022/03/27 07:14:55;;;;;;;96.57;58.17;;;14.50;89.80;;;;;;4993511;28;20496;-59
2022/03/27 07:17:21;;;;;;;96.15;58.15;;;14.50;89.80;;;;;;4994504;28;20019;-58
2022/03/27 07:19:47;;;;;;;85.50;53.92;;;14.60;90.00;;;;;;4978189;28;20069;-59
2022/03/27 07:22:13;;;;;;;75.88;50.08;;;14.60;89.60;;;;;;4991780;28;20034;-60
2022/03/27 07:24:38;;;;;;;74.25;48.40;;;14.50;89.70;;;;;;4986975;28;20263;-59
2022/03/27 07:27:04;;;;;;;74.10;46.88;;;14.50;89.80;;;;;;4991295;28;20491;-62
2022/03/27 07:29:35;;;;;;;70.80;47.38;;;14.50;90.00;;;;;;4979754;28;20058;-66
2022/03/27 07:32:01;;;;;;;69.65;47.35;;;14.60;90.00;;;;;;4987543;28;20498;-59
2022/03/27 07:34:26;;;;;;;68.85;45.30;;;14.50;90.00;;;;;;4965679;28;20455;-61
2022/03/27 07:36:52;;;;;;;69.75;45.47;;;14.50;90.10;;;;;;4989332;28;20479;-59
2022/03/27 07:39:17;;;;;;;66.80;43.50;;;14.50;90.00;;;;;;4988012;28;20042;-59
2022/03/27 07:41:43;;;;;;;72.10;45.88;;;14.50;90.10;;;;;;4981538;28;20031;-59
2022/03/27 07:44:08;;;;;;;72.80;46.40;;;14.50;90.00;;;;;;4969909;28;20076;-59
2022/03/27 07:46:34;;;;;;;70.43;45.40;;;14.50;90.10;;;;;;4984527;28;20072;-60
2022/03/27 07:49:00;;;;;;;71.35;45.83;;;14.60;90.10;;;;;;4987350;28;20110;-59
2022/03/27 07:51:25;;;;;;;91.18;53.33;;;14.50;90.00;;;;;;4986958;28;20027;-60
2022/03/27 07:53:52;;;;;;;99.13;56.25;;;14.50;89.90;;;;;;4977658;28;20029;-59
2022/03/27 07:56:18;;;;;;;102.85;58.42;;;14.50;90.00;;;;;;4985052;28;20023;-59
2022/03/27 07:58:44;;;;;;;70.72;43.67;;;14.50;90.10;;;;;;4984664;28;20109;-60
2022/03/27 08:01:09;;;;;;;52.33;33.97;;;14.40;90.10;;;;;;4977300;28;20058;-58
2022/03/27 08:03:38;;;;;;;34.83;25.20;;;14.40;90.20;;;;;;4980684;28;20117;-59
2022/03/27 08:06:03;;;;;;;28.88;22.95;;;14.30;90.30;;;;;;4971229;28;20176;-60
2022/03/27 08:08:30;;;;;;;25.67;21.85;;;14.30;90.40;;;;;;4991704;28;20105;-59
2022/03/27 08:10:56;;;;;;;23.85;20.45;;;14.30;90.40;;;;;;4983711;28;20018;-60
2022/03/27 08:13:22;;;;;;;29.70;20.92;;;14.30;90.40;;;;;;4977982;28;20026;-60
2022/03/27 08:15:47;;;;;;;31.38;23.63;;;14.30;90.40;;;;;;4964765;28;20022;-58
2022/03/27 08:18:13;;;;;;;34.83;24.90;;;14.30;90.30;;;;;;4985754;28;20040;-60
2022/03/27 08:20:40;;;;;;;36.30;26.75;;;14.20;90.60;;;;;;4991187;28;20037;-60
2022/03/27 08:23:07;;;;;;;27.73;22.83;;;14.20;90.60;;;;;;4975639;28;20527;-60
2022/03/27 08:28:20;;;;;;;21.58;19.42;;;14.20;90.50;;;;;;4985803;28;20045;-62
2022/03/27 08:30:46;;;;;;;27.40;22.30;;;14.10;90.60;;;;;;4989001;28;20100;-59
2022/03/27 08:33:13;;;;;;;23.92;21.45;;;14.20;90.70;;;;;;4976756;28;20354;-59
2022/03/27 08:35:41;;;;;;;23.30;21.00;;;14.20;90.60;;;;;;4986394;28;20018;-60
2022/03/27 08:38:11;;;;;;;23.50;21.00;;;14.20;90.50;;;;;;4993356;28;20038;-60
2022/03/27 08:40:40;;;;;;;24.65;20.10;;;14.30;90.50;;;;;;4972755;28;20026;-61
2022/03/27 08:43:09;;;;;;;26.77;22.63;;;14.30;90.30;;;;;;4983964;28;20041;-60
2022/03/27 08:45:35;;;;;;;40.58;30.50;;;14.30;90.30;;;;;;4968493;28;20030;-59
2022/03/27 08:48:01;;;;;;;47.17;32.78;;;14.10;90.60;;;;;;4988497;28;20073;-59
2022/03/27 08:50:31;;;;;;;42.80;31.23;;;14.20;90.60;;;;;;4987059;28;20038;-61
2022/03/27 08:53:01;;;;;;;41.75;30.80;;;14.20;90.70;;;;;;4988560;28;20122;-60
2022/03/27 08:55:57;;;;;;;42.53;31.45;;;14.10;90.60;;;;;;4989535;28;20018;-60
2022/03/27 08:58:34;;;;;;;42.95;31.08;;;14.20;90.60;;;;;;4989573;28;20023;-59
2022/03/27 09:01:01;;;;;;;41.95;29.80;;;14.30;90.50;;;;;;4989980;28;20379;-59
2022/03/27 09:03:27;;;;;;;40.42;29.67;;;14.30;90.30;;;;;;4973721;28;20125;-60
2022/03/27 09:05:53;;;;;;;38.60;28.65;;;14.30;90.40;;;;;;4988758;28;20034;-60
2022/03/27 09:08:18;;;;;;;31.83;25.23;;;14.10;90.70;;;;;;4988649;28;20424;-59
2022/03/27 09:10:45;;;;;;;27.20;24.23;;;14.10;90.80;;;;;;4970861;28;20546;-59
2022/03/27 09:13:17;;;;;;;30.55;23.83;;;14.30;90.60;;;;;;4989871;28;20034;-59
2022/03/27 09:15:45;;;;;;;26.73;23.60;;;14.30;90.40;;;;;;4992195;28;20037;-60
2022/03/27 09:18:12;;;;;;;29.15;23.42;;;14.40;90.40;;;;;;4992048;28;20064;-61
2022/03/27 09:20:47;;;;;;;23.65;21.17;;;14.50;90.30;;;;;;4992026;28;20037;-59
2022/03/27 09:23:18;;;;;;;27.50;23.30;;;14.50;90.20;;;;;;4976254;28;20045;-60
2022/03/27 09:26:05;;;;;;;26.42;22.67;;;14.50;90.00;;;;;;4985482;28;20105;-59
2022/03/27 09:28:35;;;;;;;29.52;24.75;;;14.50;90.20;;;;;;4979939;28;20030;-60
2022/03/27 09:31:06;;;;;;;33.10;26.20;;;14.60;90.10;;;;;;4987284;28;20098;-60
2022/03/27 09:33:48;;;;;;;30.25;25.33;;;14.70;90.00;;;;;;4985450;28;20049;-60
2022/03/27 09:36:13;;;;;;;;;;;14.70;89.90;;;;;;4983540;28;20023;-61
2022/03/27 09:38:40;;;;;;;29.35;24.33;;;14.70;89.40;;;;;;4990264;28;20001;-60
2022/03/27 09:41:09;;;;;;;29.30;22.67;;;14.70;89.80;;;;;;4985875;28;20419;-60
2022/03/27 09:43:35;;;;;;;27.25;23.02;;;14.70;89.60;;;;;;4992567;28;20026;-59
2022/03/27 09:46:02;;;;;;;26.67;23.73;;;14.70;89.40;;;;;;4981080;28;20038;-60
2022/03/27 09:48:28;;;;;;;24.88;22.13;;;14.70;89.20;;;;;;4990643;28;20042;-59
2022/03/27 09:50:59;;;;;;;28.58;22.63;;;14.70;89.40;;;;;;4986276;28;20395;-59
2022/03/27 09:53:32;;;;;;;28.52;24.70;;;14.70;89.40;;;;;;4986112;28;20022;-60
2022/03/27 09:55:58;;;;;;;30.30;25.63;;;14.70;89.40;;;;;;4986516;28;20050;-62
2022/03/27 09:58:38;;;;;;;31.17;26.00;;;14.70;89.20;;;;;;4978570;28;20531;-58
2022/03/27 10:01:08;;;;;;;34.53;24.73;;;14.60;89.40;;;;;;4982467;28;20030;-63
2022/03/27 10:03:35;;;;;;;37.60;28.63;;;14.80;89.30;;;;;;4986111;28;20022;-58
2022/03/27 10:06:04;;;;;;;38.58;29.17;;;14.80;88.80;;;;;;4988328;28;20042;-60
2022/03/27 10:08:29;;;;;;;31.60;25.52;;;14.90;88.60;;;;;;4990861;28;20113;-61
2022/03/27 10:10:58;;;;;;;32.92;25.77;;;14.90;88.60;;;;;;4990060;28;20428;-59
2022/03/27 10:13:31;;;;;;;29.17;24.20;;;14.90;88.50;;;;;;4990041;28;20029;-71
2022/03/27 10:15:59;;;;;;;27.77;23.33;;;14.90;88.50;;;;;;4975490;28;20121;-62
2022/03/27 10:18:25;;;;;;;35.90;29.10;;;14.90;88.60;;;;;;4992364;28;20030;-58
2022/03/27 10:20:57;;;;;;;40.92;31.85;;;14.90;88.50;;;;;;4992953;28;20027;-62
2022/03/27 10:23:23;;;;;;;;;;;15.00;88.30;;;;;;4993446;28;20145;-60
2022/03/27 10:25:54;;;;;;;33.63;28.08;;;15.00;87.70;;;;;;4993354;28;19922;-61
2022/03/27 10:28:20;;;;;;;34.78;28.05;;;15.00;88.10;;;;;;4989918;28;20022;-60
2022/03/27 10:30:50;;;;;;;27.60;24.48;;;15.00;88.20;;;;;;4992243;28;20026;-61
2022/03/27 10:33:16;;;;;;;29.92;25.98;;;14.90;88.10;;;;;;4991849;28;20025;-61
2022/03/27 10:36:39;;;;;;;37.35;29.08;;;15.00;88.20;;;;;;4988477;28;20798;-62
2022/03/27 10:39:25;;;;;;;38.42;30.85;;;15.00;87.90;;;;;;4950478;28;20094;-58
2022/03/27 10:42:27;;;;;;;34.35;29.10;;;15.00;87.90;;;;;;4947541;29;20039;-61
2022/03/27 10:45:15;;;;;;;35.75;28.35;;;15.00;88.00;;;;;;4985961;28;20427;-61
2022/03/27 10:47:41;;;;;;;32.75;27.63;;;15.10;88.00;;;;;;4990933;28;20479;-59
2022/03/27 10:50:08;;;;;;;34.38;27.10;;;15.00;87.80;;;;;;4993847;28;20129;-61
2022/03/27 10:52:36;;;;;;;32.30;28.27;;;15.10;87.90;;;;;;4996286;28;20021;-63
2022/03/27 10:55:11;;;;;;;37.05;29.33;;;15.10;87.80;;;;;;4989446;28;20140;-60
2022/03/27 10:57:41;;;;;;;34.25;29.20;;;15.10;87.80;;;;;;4980424;28;20496;-59
2022/03/27 11:00:10;;;;;;;36.70;30.38;;;15.10;87.80;;;;;;4985809;28;20030;-60
2022/03/27 11:02:56;;;;;;;40.15;31.85;;;15.20;87.60;;;;;;4965049;28;20023;-60
2022/03/27 11:05:36;;;;;;;38.45;30.15;;;15.20;87.30;;;;;;4985575;28;20042;-61
2022/03/27 11:08:17;;;;;;;37.53;30.45;;;15.30;87.50;;;;;;4981573;28;20026;-59
2022/03/27 11:10:45;;;;;;;37.88;30.90;;;15.30;87.30;;;;;;4982490;28;20046;-63
2022/03/27 11:13:32;;;;;;;35.45;27.52;;;15.30;87.30;;;;;;4969547;28;20022;-60
2022/03/27 11:16:09;;;;;;;32.10;26.67;;;15.30;87.00;;;;;;4987675;28;20081;-63
2022/03/27 11:18:39;;;;;;;24.42;21.13;;;15.30;87.10;;;;;;4982595;28;20105;-63
2022/03/27 11:21:06;;;;;;;20.00;18.10;;;15.30;87.00;;;;;;4968090;28;20035;-62
2022/03/27 11:23:34;;;;;;;20.50;18.50;;;15.30;86.90;;;;;;4983822;28;20099;-59
2022/03/27 11:26:01;;;;;;;22.15;19.85;;;15.30;87.10;;;;;;4986317;28;20038;-62
2022/03/27 11:28:43;;;;;;;27.17;24.38;;;15.40;87.00;;;;;;4983900;28;20039;-62
2022/03/27 11:31:09;;;;;;;32.88;29.30;;;15.40;86.80;;;;;;4985337;28;20081;-59
2022/03/27 11:33:35;;;;;;;27.02;24.05;;;15.40;86.90;;;;;;4986066;28;20089;-61
2022/03/27 11:36:09;;;;;;;22.52;20.17;;;15.40;86.70;;;;;;4984037;28;20367;-62
2022/03/27 11:38:54;;;;;;;20.52;18.42;;;15.40;87.20;;;;;;4984938;28;20385;-60
2022/03/27 11:41:29;;;;;;;20.65;18.45;;;15.40;86.30;;;;;;4983941;28;20057;-61
2022/03/27 11:43:57;;;;;;;23.13;20.55;;;15.40;86.70;;;;;;4984013;28;20022;-62
2022/03/27 11:46:24;;;;;;;24.80;22.15;;;15.50;86.90;;;;;;4982840;28;20109;-62
2022/03/27 11:49:00;;;;;;;28.60;25.60;;;15.50;87.00;;;;;;4984190;28;20034;-62
2022/03/27 11:51:27;;;;;;;25.38;22.75;;;15.60;86.90;;;;;;4985942;28;20526;-62
2022/03/27 11:53:54;;;;;;;25.65;23.13;;;15.60;87.10;;;;;;4984458;28;20054;-62
2022/03/27 11:56:21;;;;;;;23.42;21.02;;;15.60;86.70;;;;;;4992688;28;20028;-63
2022/03/27 11:59:07;;;;;;;60.20;50.67;;;15.60;87.00;;;;;;4994096;28;20391;-60
2022/03/27 12:01:32;;;;;;;54.28;45.13;;;15.70;86.10;;;;;;4987001;28;20475;-62
2022/03/27 12:03:59;;;;;;;63.80;53.42;;;15.70;86.20;;;;;;4989063;28;20022;-60
2022/03/27 12:06:29;;;;;;;85.13;66.25;;;15.70;86.20;;;;;;4989456;28;20038;-58
2022/03/27 12:08:56;;;;;;;80.68;64.32;;;15.70;86.40;;;;;;4982803;28;20036;-62
2022/03/27 12:11:25;;;;;;;69.43;56.35;;;15.80;85.90;;;;;;4980607;28;20177;-62
2022/03/27 12:13:51;;;;;;;72.40;57.28;;;15.80;86.20;;;;;;4988218;28;20076;-60
2022/03/27 12:16:25;;;;;;;77.38;62.33;;;15.80;85.40;;;;;;4988655;28;20022;-61
2022/03/27 12:18:51;;;;;;;70.45;58.03;;;15.80;85.30;;;;;;4990695;28;20061;-60
2022/03/27 12:21:20;;;;;;;84.97;69.57;;;15.90;85.50;;;;;;4986225;28;20030;-60
2022/03/27 12:23:50;;;;;;;94.85;74.70;;;15.90;85.50;;;;;;4978623;28;20072;-59
2022/03/27 12:32:11;;;;;;;96.00;78.35;;;16.00;85.00;;;;;;4991435;28;20073;-59
2022/03/27 12:35:01;;;;;;;97.45;77.82;;;16.00;85.00;;;;;;4982413;28;20015;-60
2022/03/27 12:37:29;;;;;;;95.35;78.57;;;16.00;84.40;;;;;;4991494;28;20050;-57
2022/03/27 12:39:54;;;;;;;86.97;68.93;;;16.10;84.80;;;;;;4988306;28;20515;-60
2022/03/27 12:42:42;;;;;;;73.25;61.33;;;16.10;85.20;;;;;;4984554;28;20023;-60
2022/03/27 12:45:29;;;;;;;54.35;47.45;;;16.10;84.80;;;;;;4981783;28;20042;-59
2022/03/27 12:48:03;;;;;;;54.63;45.92;;;16.10;84.20;;;;;;4983435;28;20126;-59